Airfield :
LOGIN :

Register | Disclaimer

   EN    FR    IT 

 










Legend :    VFR   Marginal VFR   IFR   Intensive IFR   Very Intensive IFR
Visi :
Ceiling :
>= 8 km
>= 3000ft
5 to 8 km
1000 to 3000 ft
1500m to 5 km
500 to 1000 ft
800 to 1500m
200 to 500 ft
< 800m
< 200 ft
Symbols :   Thunderstorms  Fog  Heavy snow  Heavy precipitations  Wind > 20 kt
SIGMETs :     Misc.  Thunderstorms  Icing  Turbulence  Mountain Waves  Volcanic Ashes






- Airport Elevation : 1535 ft
- IATA code : OUD


GMFO - Ouja Angads

CURRENT METAR :
  • 062030Z 19006KT 9999 FEW026 09/08 Q1019 NOSIG

EXPIRED METARs :
  • 062000Z 19003KT 120V210 9999 FEW026 10/07 Q1019 NOSIG
  • 061930Z 20004KT 9999 FEW026 10/08 Q1019 NOSIG
  • 061900Z 20004KT 9999 FEW026 SCT083 11/09 Q1019 NOSIG
  • 061830Z 23006KT 9999 FEW026 SCT083 11/09 Q1018 NOSIG
  • 061800Z 27004KT 9999 FEW026 SCT083 13/08 Q1018 NOSIG

TAF TAF GMFO
Valid from the 06 at 18:00 until the 08 at 00:00 UTC


061700Z 0618/0724 20008KT 9999 SCT026 BKN100
PROB30
TEMPO 0714/0720 -TSRA SCT026 FEW030CB BKN100



MET'MAP, your aeronautical weather chart ! - Copyright ORBIFLY December 2007 - Disclaimer

ORBIFLY MET'MAP TEAM :

Programming & Development : Alexandra Zaïnal
Concept & original design : Baudouin d'Aumeries
Assistance for programming : Marc-Olivier Méhu
Technical & hardware support : Manuel Goepfert

Contact : metmap@orbifly.com




SOURCES & CREDITS :

   NOAA